Time;durP1;ratioP1;P1;durP2;ratioP2;P2;SDS_P1;SDS_P2;PMS_P1;PMS_P2;Temp;Humidity;BMP_temperature;BMP_pressure;BME280_temperature;BME280_humidity;BME280_pressure;Samples;Min_cycle;Max_cycle;Signal;HPM_P1;HPM_P2
2021/05/23 00:01:26;;;;;;;21.02;11.23;;;;;;;-145.50;100.00;65435.88;4995589;28;20092;-72
2021/05/23 00:04:13;;;;;;;19.90;11.40;;;;;;;-145.50;100.00;65435.88;4982316;28;20157;-72
2021/05/23 00:07:01;;;;;;;20.63;11.52;;;;;;;-145.50;100.00;65435.88;4987454;28;20147;-72
2021/05/23 00:09:48;;;;;;;20.92;11.80;;;;;;;-145.50;100.00;65435.88;4983111;28;20136;-72
2021/05/23 00:12:35;;;;;;;22.45;12.13;;;;;;;-145.50;100.00;65435.88;4994845;28;20097;-72
2021/05/23 00:15:38;;;;;;;19.75;11.25;;;;;;;-145.50;100.00;65435.88;4985440;28;20141;-74
2021/05/23 00:18:27;;;;;;;22.55;11.68;;;;;;;-145.50;100.00;65435.88;4990931;28;20077;-73
2021/05/23 00:21:15;;;;;;;24.95;12.32;;;;;;;-145.50;100.00;65435.88;4984155;28;20081;-74
2021/05/23 00:24:02;;;;;;;22.90;12.13;;;;;;;-145.50;100.00;65435.88;4993424;28;20803;-74
2021/05/23 00:26:51;;;;;;;18.08;10.48;;;;;;;-145.50;100.00;65435.88;5004624;28;20487;-73
2021/05/23 00:29:38;;;;;;;20.02;11.00;;;;;;;-145.50;100.00;65435.88;4990689;28;20050;-74
2021/05/23 00:32:25;;;;;;;24.08;11.57;;;;;;;-145.50;100.00;65435.88;4976697;28;20426;-74
2021/05/23 00:35:13;;;;;;;21.00;11.05;;;;;;;-145.50;100.00;65435.88;4991259;28;20137;-74
2021/05/23 00:38:00;;;;;;;20.92;11.50;;;;;;;-145.50;100.00;65435.88;4980204;28;20363;-74
2021/05/23 00:40:47;;;;;;;24.65;11.18;;;;;;;-145.50;100.00;65435.88;4995899;28;20058;-74
2021/05/23 00:43:36;;;;;;;20.83;11.32;;;;;;;-145.50;100.00;65435.88;4998892;28;20137;-74
2021/05/23 00:46:23;;;;;;;19.10;11.52;;;;;;;-145.50;100.00;65435.88;4991264;28;20081;-74
2021/05/23 00:49:10;;;;;;;19.05;11.75;;;;;;;-145.50;100.00;65435.88;4987586;28;20054;-74
2021/05/23 00:51:57;;;;;;;19.95;11.35;;;;;;;-145.50;100.00;65435.88;4995618;28;20573;-74
2021/05/23 00:54:44;;;;;;;19.27;11.63;;;;;;;-145.50;100.00;65435.88;4999284;28;20145;-73
2021/05/23 00:57:31;;;;;;;17.92;10.10;;;;;;;-145.50;100.00;65435.88;4996354;28;20062;-74
2021/05/23 01:00:37;;;;;;;17.60;9.70;;;;;;;-145.50;100.00;65435.88;4994491;28;20150;-74
2021/05/23 01:03:27;;;;;;;23.40;10.95;;;;;;;-145.50;100.00;65435.88;4988405;28;20515;-75
2021/05/23 01:06:16;;;;;;;19.75;11.13;;;;;;;-145.50;100.00;65435.88;4995955;28;20635;-75
2021/05/23 01:09:06;;;;;;;16.65;8.65;;;;;;;-145.50;100.00;65435.88;4991934;28;20156;-75
2021/05/23 01:12:19;;;;;;;21.98;10.27;;;;;;;-145.50;100.00;65435.88;4992203;28;20580;-75
2021/05/23 01:15:18;;;;;;;18.30;9.38;;;;;;;-145.50;100.00;65435.88;4993882;28;20389;-75
2021/05/23 01:18:13;;;;;;;18.85;8.88;;;;;;;-145.50;100.00;65435.88;4991270;28;20144;-75
2021/05/23 01:21:12;;;;;;;16.15;8.48;;;;;;;-145.50;100.00;65435.88;4993230;28;20085;-75
2021/05/23 01:24:10;;;;;;;14.65;8.32;;;;;;;-145.50;100.00;65435.88;4996354;28;20129;-75
2021/05/23 01:26:59;;;;;;;11.70;7.75;;;;;;;-145.50;100.00;65435.88;4993563;28;20447;-75
2021/05/23 01:29:46;;;;;;;14.45;8.05;;;;;;;-145.50;100.00;65435.88;4981320;28;20136;-74
2021/05/23 01:32:34;;;;;;;14.32;8.10;;;;;;;-145.50;100.00;65435.88;4995451;28;20050;-76
2021/05/23 01:35:30;;;;;;;15.30;8.83;;;;;;;-145.50;100.00;65435.88;4992705;28;20108;-76
2021/05/23 01:38:20;;;;;;;15.80;8.43;;;;;;;-145.50;100.00;65435.88;4997902;28;20311;-76
2021/05/23 01:43:59;;;;;;;14.30;8.02;;;;;;;-145.50;100.00;65435.88;5316219;23;20053;-75
2021/05/23 01:46:47;;;;;;;14.73;8.15;;;;;;;-145.50;100.00;65435.88;4984336;28;20050;-74
2021/05/23 01:49:37;;;;;;;15.98;8.57;;;;;;;-145.50;100.00;65435.88;4981871;28;20148;-75
2021/05/23 01:52:24;;;;;;;19.83;9.05;;;;;;;-145.50;100.00;65435.88;4986866;28;20053;-74
2021/05/23 01:55:12;;;;;;;13.63;9.55;;;;;;;-145.50;100.00;65435.88;4973786;28;20327;-74
2021/05/23 01:57:59;;;;;;;17.42;9.02;;;;;;;-145.50;100.00;65435.88;4983165;28;20054;-75
2021/05/23 02:00:49;;;;;;;14.55;8.88;;;;;;;-145.50;100.00;65435.88;4975604;28;20081;-75
2021/05/23 02:03:38;;;;;;;16.17;9.43;;;;;;;-145.50;100.00;65435.88;4984133;28;20061;-75
2021/05/23 02:06:25;;;;;;;14.05;8.00;;;;;;;-145.50;100.00;65435.88;4975558;28;20097;-75
2021/05/23 02:09:12;;;;;;;15.00;8.57;;;;;;;-145.50;100.00;65435.88;4980440;28;20137;-75
2021/05/23 02:11:59;;;;;;;16.48;8.80;;;;;;;-145.50;100.00;65435.88;4972893;28;20058;-74
2021/05/23 02:14:46;;;;;;;15.50;8.48;;;;;;;-145.50;100.00;65435.88;4967724;28;20054;-74
2021/05/23 02:17:35;;;;;;;17.60;9.95;;;;;;;-145.50;100.00;65435.88;4960913;28;20089;-75
2021/05/23 02:20:24;;;;;;;16.50;8.93;;;;;;;-145.50;100.00;65435.88;4986342;28;20050;-74
2021/05/23 02:23:13;;;;;;;18.15;10.55;;;;;;;-145.50;100.00;65435.88;4972863;28;20078;-74
2021/05/23 02:26:00;;;;;;;;;;;;;;;-145.50;100.00;65435.88;4965239;28;20085;-75
2021/05/23 02:28:47;;;;;;;19.38;10.82;;;;;;;-145.50;100.00;65435.88;4974039;28;20019;-74
2021/05/23 02:31:34;;;;;;;15.90;10.18;;;;;;;-145.50;100.00;65435.88;4982048;28;20090;-75
2021/05/23 02:34:24;;;;;;;20.80;11.25;;;;;;;-145.50;100.00;65435.88;4974202;28;20343;-75
2021/05/23 02:37:11;;;;;;;19.98;10.85;;;;;;;-145.50;100.00;65435.88;4979111;28;20086;-74
2021/05/23 02:40:00;;;;;;;15.48;10.02;;;;;;;-145.50;100.00;65435.88;4972189;28;20147;-74
2021/05/23 02:42:48;;;;;;;20.48;10.85;;;;;;;-145.50;100.00;65435.88;4979377;28;20109;-74
2021/05/23 02:45:37;;;;;;;18.23;10.40;;;;;;;-145.50;100.00;65435.88;4973505;28;20149;-75
2021/05/23 02:48:25;;;;;;;20.75;11.63;;;;;;;-145.50;100.00;65435.88;4979122;28;20054;-75
2021/05/23 02:51:13;;;;;;;19.67;11.07;;;;;;;-145.50;100.00;65435.88;4951621;28;20050;-75
2021/05/23 02:54:01;;;;;;;22.73;11.70;;;;;;;-145.50;100.00;65435.88;4979953;28;20085;-75
2021/05/23 02:56:48;;;;;;;21.92;11.73;;;;;;;-145.50;100.00;65435.88;4973907;28;20054;-75
2021/05/23 02:59:36;;;;;;;20.27;11.07;;;;;;;-145.50;100.00;65435.88;4980454;28;20051;-75
2021/05/23 03:02:23;;;;;;;19.77;10.77;;;;;;;-145.50;100.00;65435.88;4969883;28;20086;-75
2021/05/23 03:05:11;;;;;;;22.42;10.65;;;;;;;-145.50;100.00;65435.88;4977711;28;20090;-75
2021/05/23 03:08:01;;;;;;;21.25;11.85;;;;;;;-145.50;100.00;65435.88;4975676;28;20917;-75
2021/05/23 03:10:51;;;;;;;19.17;12.57;;;;;;;-145.50;100.00;65435.88;4978416;28;20709;-75
2021/05/23 03:13:39;;;;;;;22.35;12.77;;;;;;;-145.50;100.00;65435.88;4953053;28;20054;-76
2021/05/23 03:16:26;;;;;;;21.88;13.05;;;;;;;-145.50;100.00;65435.88;4967391;28;20077;-75
2021/05/23 03:19:16;;;;;;;17.98;12.52;;;;;;;-145.50;100.00;65435.88;4966965;28;20069;-75
2021/05/23 03:22:04;;;;;;;20.83;12.60;;;;;;;-145.50;100.00;65435.88;4978750;28;20042;-75
2021/05/23 03:24:52;;;;;;;18.52;11.27;;;;;;;-145.50;100.00;65435.88;4970696;28;20275;-75
2021/05/23 03:27:39;;;;;;;21.23;12.65;;;;;;;-145.50;100.00;65435.88;4962858;28;20054;-75
2021/05/23 03:30:32;;;;;;;19.23;12.95;;;;;;;-145.50;100.00;65435.88;4971158;28;20054;-75
2021/05/23 03:33:19;;;;;;;19.48;13.15;;;;;;;-145.50;100.00;65435.88;4975426;28;20153;-75
2021/05/23 03:36:06;;;;;;;21.70;14.60;;;;;;;-145.50;100.00;65435.88;4971958;28;20133;-75
2021/05/23 03:38:53;;;;;;;22.27;13.80;;;;;;;-145.50;100.00;65435.88;4981518;28;20050;-75
2021/05/23 03:41:40;;;;;;;25.75;14.60;;;;;;;-145.50;100.00;65435.88;4974657;28;20109;-75
2021/05/23 03:44:28;;;;;;;22.55;13.45;;;;;;;-145.50;100.00;65435.88;4974330;28;20074;-75
2021/05/23 03:47:15;;;;;;;25.83;15.13;;;;;;;-145.50;100.00;65435.88;4958650;28;20086;-75
2021/05/23 03:50:04;;;;;;;22.98;13.73;;;;;;;-145.50;100.00;65435.88;4962010;28;20081;-75
2021/05/23 03:52:53;;;;;;;23.92;14.30;;;;;;;-145.50;100.00;65435.88;4968220;28;20121;-75
2021/05/23 03:55:41;;;;;;;22.33;14.82;;;;;;;-145.50;100.00;65435.88;4968320;28;20520;-75
2021/05/23 03:58:28;;;;;;;23.77;14.50;;;;;;;-145.50;100.00;65435.88;4975535;28;20134;-75
2021/05/23 04:01:15;;;;;;;26.52;15.98;;;;;;;-145.50;100.00;65435.88;4971036;28;20117;-75
2021/05/23 04:04:03;;;;;;;27.88;15.60;;;;;;;-145.50;100.00;65435.88;4979652;28;20351;-75
2021/05/23 04:06:50;;;;;;;23.83;15.40;;;;;;;-145.50;100.00;65435.88;4974407;28;20116;-75
2021/05/23 04:09:37;;;;;;;26.35;17.17;;;;;;;-145.50;100.00;65435.88;4975736;28;20615;-75
2021/05/23 04:12:32;;;;;;;26.88;16.42;;;;;;;-145.50;100.00;65435.88;4965760;28;20050;-75
2021/05/23 04:15:19;;;;;;;29.13;18.67;;;;;;;-145.50;100.00;65435.88;4974769;28;20497;-75
2021/05/23 04:18:07;;;;;;;27.50;18.60;;;;;;;-145.50;100.00;65435.88;4975915;28;20879;-75
2021/05/23 04:20:54;;;;;;;28.35;18.83;;;;;;;-145.50;100.00;65435.88;4964049;28;20055;-75
2021/05/23 04:23:41;;;;;;;31.98;20.02;;;;;;;-145.50;100.00;65435.88;4975485;28;20054;-75
2021/05/23 04:26:28;;;;;;;35.97;21.92;;;;;;;-145.50;100.00;65435.88;4981881;28;20479;-75
2021/05/23 04:29:16;;;;;;;33.20;22.13;;;;;;;-145.50;100.00;65435.88;4969180;28;20789;-75
2021/05/23 04:32:04;;;;;;;37.40;21.70;;;;;;;-145.50;100.00;65435.88;4983544;28;20471;-75
2021/05/23 04:34:52;;;;;;;36.65;23.38;;;;;;;-145.50;100.00;65435.88;4974385;28;20105;-75
2021/05/23 04:37:39;;;;;;;37.88;23.80;;;;;;;-145.50;100.00;65435.88;4981986;28;20523;-75
2021/05/23 04:40:28;;;;;;;36.45;24.13;;;;;;;-145.50;100.00;65435.88;4973224;28;20528;-75
2021/05/23 04:43:15;;;;;;;41.47;26.13;;;;;;;-145.50;100.00;65435.88;4960588;28;21257;-75
2021/05/23 04:46:02;;;;;;;41.03;24.13;;;;;;;-145.50;100.00;65435.88;4977817;28;20108;-76
2021/05/23 04:48:49;;;;;;;45.45;26.38;;;;;;;-145.50;100.00;65435.88;4980220;28;20058;-75
2021/05/23 04:51:42;;;;;;;43.97;25.80;;;;;;;-145.50;100.00;65435.88;4967279;28;20599;-75
2021/05/23 04:54:29;;;;;;;41.40;25.60;;;;;;;-145.50;100.00;65435.88;4977121;28;20163;-75
2021/05/23 04:57:16;;;;;;;45.75;28.30;;;;;;;-145.50;100.00;65435.88;4971324;28;20090;-75
2021/05/23 05:00:04;;;;;;;48.85;27.65;;;;;;;-145.50;100.00;65435.88;4964525;28;20050;-75
2021/05/23 05:02:52;;;;;;;45.80;28.55;;;;;;;-145.50;100.00;65435.88;4970017;28;20596;-75
2021/05/23 05:05:40;;;;;;;50.67;28.03;;;;;;;-145.50;100.00;65435.88;4981336;28;20093;-75
2021/05/23 05:08:27;;;;;;;48.15;30.33;;;;;;;-145.50;100.00;65435.88;4969041;28;20083;-75
2021/05/23 05:11:15;;;;;;;50.10;28.98;;;;;;;-145.50;100.00;65435.88;4978489;28;20532;-75
2021/05/23 05:14:02;;;;;;;56.97;31.33;;;;;;;-145.50;100.00;65435.88;4974312;28;20050;-76
2021/05/23 05:16:50;;;;;;;55.30;32.08;;;;;;;-145.50;100.00;65435.88;4963778;28;20068;-75
2021/05/23 05:19:38;;;;;;;56.77;32.23;;;;;;;-145.50;100.00;65435.88;4976425;28;20175;-75
2021/05/23 05:22:26;;;;;;;61.38;34.25;;;;;;;-145.50;100.00;65435.88;4960131;28;20344;-76
2021/05/23 05:25:14;;;;;;;57.72;34.22;;;;;;;-145.50;100.00;65435.88;4965569;28;20086;-75
2021/05/23 05:28:01;;;;;;;61.40;34.35;;;;;;;-145.50;100.00;65435.88;4981235;28;20136;-75
2021/05/23 05:30:49;;;;;;;54.77;31.97;;;;;;;-145.50;100.00;65435.88;4978991;28;20057;-75
2021/05/23 05:33:36;;;;;;;56.80;32.97;;;;;;;-145.50;100.00;65435.88;4964365;28;20363;-75
2021/05/23 05:36:23;;;;;;;60.95;34.78;;;;;;;-145.50;100.00;65435.88;4975713;28;20556;-75
2021/05/23 05:39:11;;;;;;;45.65;29.10;;;;;;;-145.50;100.00;65435.88;4960199;28;20473;-75
2021/05/23 05:41:58;;;;;;;53.50;29.65;;;;;;;-145.50;100.00;65435.88;4961917;28;20294;-75
2021/05/23 05:44:46;;;;;;;42.40;26.70;;;;;;;-145.50;100.00;65435.88;4976288;28;20413;-75
2021/05/23 05:47:33;;;;;;;42.93;27.67;;;;;;;-145.50;100.00;65435.88;4984250;28;20140;-75
2021/05/23 05:50:21;;;;;;;46.67;28.17;;;;;;;-145.50;100.00;65435.88;4970356;28;20090;-75
2021/05/23 05:53:09;;;;;;;47.78;29.10;;;;;;;-145.50;100.00;65435.88;4974793;28;20137;-75
2021/05/23 05:55:56;;;;;;;45.15;28.45;;;;;;;-145.50;100.00;65435.88;4970941;28;20516;-75
2021/05/23 05:58:43;;;;;;;48.85;29.55;;;;;;;-145.50;100.00;65435.88;4982423;28;20441;-75
2021/05/23 06:01:30;;;;;;;49.22;31.27;;;;;;;-145.50;100.00;65435.88;4955496;28;20524;-75
2021/05/23 06:04:18;;;;;;;48.67;30.35;;;;;;;-145.50;100.00;65435.88;4960177;28;20097;-75
2021/05/23 06:07:05;;;;;;;54.23;31.13;;;;;;;-145.50;100.00;65435.88;4952354;28;20081;-75
2021/05/23 06:09:53;;;;;;;54.83;32.42;;;;;;;-145.50;100.00;65435.88;4980750;28;20530;-75
2021/05/23 06:12:40;;;;;;;54.00;30.48;;;;;;;-145.50;100.00;65435.88;4972896;28;20517;-75
2021/05/23 06:15:29;;;;;;;53.40;31.75;;;;;;;-145.50;100.00;65435.88;4980433;28;20105;-76
2021/05/23 06:18:16;;;;;;;39.30;24.95;;;;;;;-145.50;100.00;65435.88;4973605;28;20058;-76
2021/05/23 06:21:04;;;;;;;41.72;27.13;;;;;;;-145.50;100.00;65435.88;4960202;28;20081;-75
2021/05/23 06:23:51;;;;;;;35.20;25.02;;;;;;;-145.50;100.00;65435.88;4955800;28;20162;-75
2021/05/23 06:26:39;;;;;;;44.47;24.73;;;;;;;-145.50;100.00;65435.88;4968701;28;20113;-75
2021/05/23 06:29:26;;;;;;;36.05;21.17;;;;;;;-145.50;100.00;65435.88;4974964;28;20373;-75
2021/05/23 06:32:14;;;;;;;33.42;19.27;;;;;;;-145.50;100.00;65435.88;4977920;28;20363;-75
2021/05/23 06:35:01;;;;;;;33.72;17.67;;;;;;;-145.50;100.00;65435.88;4972602;28;20509;-75
2021/05/23 06:37:49;;;;;;;32.40;18.23;;;;;;;-145.50;100.00;65435.88;4964334;28;20077;-76
2021/05/23 06:40:38;;;;;;;30.63;16.77;;;;;;;-145.50;100.00;65435.88;4956311;28;20244;-76
2021/05/23 06:43:26;;;;;;;27.23;16.50;;;;;;;-145.50;100.00;65435.88;4970703;28;20046;-76
2021/05/23 06:46:13;;;;;;;30.67;15.82;;;;;;;-145.50;100.00;65435.88;4967147;28;20085;-76
2021/05/23 06:49:00;;;;;;;21.83;15.07;;;;;;;-145.50;100.00;65435.88;4976697;28;20153;-76
2021/05/23 06:51:48;;;;;;;27.42;14.32;;;;;;;-145.50;100.00;65435.88;4967503;28;20928;-76
2021/05/23 06:54:35;;;;;;;23.08;14.05;;;;;;;-145.50;100.00;65435.88;4981244;28;20060;-76
2021/05/23 06:57:23;;;;;;;22.15;13.88;;;;;;;-145.50;100.00;65435.88;4970990;28;20054;-76
2021/05/23 07:00:11;;;;;;;28.23;12.35;;;;;;;-145.50;100.00;65435.88;4982647;28;20057;-75
2021/05/23 07:02:58;;;;;;;28.48;14.48;;;;;;;-145.50;100.00;65435.88;4958885;28;20793;-75
2021/05/23 07:05:45;;;;;;;27.55;12.70;;;;;;;-145.50;100.00;65435.88;4973732;28;20097;-75
2021/05/23 07:08:32;;;;;;;23.58;14.15;;;;;;;-145.50;100.00;65435.88;4974864;28;20102;-75
2021/05/23 07:11:20;;;;;;;22.73;13.00;;;;;;;-145.50;100.00;65435.88;4976869;28;20062;-75
2021/05/23 07:14:12;;;;;;;20.45;12.20;;;;;;;-145.50;100.00;65435.88;4957408;28;20054;-75
2021/05/23 07:16:59;;;;;;;24.40;11.23;;;;;;;-145.50;100.00;65435.88;4980911;28;20054;-76
2021/05/23 07:19:46;;;;;;;28.23;13.15;;;;;;;-145.50;100.00;65435.88;4957966;28;20086;-76
2021/05/23 07:22:34;;;;;;;24.20;13.30;;;;;;;-145.50;100.00;65435.88;4974787;28;20050;-75
2021/05/23 07:25:22;;;;;;;26.90;11.95;;;;;;;-145.50;100.00;65435.88;4950548;28;20054;-75
2021/05/23 07:28:12;;;;;;;21.25;12.68;;;;;;;-145.50;100.00;65435.88;4976833;28;20060;-75
2021/05/23 07:31:00;;;;;;;24.27;11.50;;;;;;;-145.50;100.00;65435.88;4980533;28;20058;-75
2021/05/23 07:33:50;;;;;;;22.30;11.23;;;;;;;-145.50;100.00;65435.88;4974008;28;20762;-75
2021/05/23 07:36:37;;;;;;;18.17;10.50;;;;;;;-145.50;100.00;65435.88;4978059;28;20370;-75
2021/05/23 07:39:24;;;;;;;24.77;10.95;;;;;;;-145.50;100.00;65435.88;4954597;28;20137;-75
2021/05/23 07:42:11;;;;;;;16.30;10.20;;;;;;;-145.50;100.00;65435.88;4978782;28;20085;-75
2021/05/23 07:44:58;;;;;;;21.80;10.77;;;;;;;-145.50;100.00;65435.88;4968962;28;20457;-75
2021/05/23 07:47:45;;;;;;;22.45;11.15;;;;;;;-145.50;100.00;65435.88;4980365;28;20085;-74
2021/05/23 07:50:33;;;;;;;15.93;9.45;;;;;;;-145.50;100.00;65435.88;4974810;28;20124;-75
2021/05/23 07:53:20;;;;;;;15.48;8.82;;;;;;;-145.50;100.00;65435.88;4975199;28;20089;-75
2021/05/23 07:56:07;;;;;;;18.10;9.52;;;;;;;-145.50;100.00;65435.88;4972161;28;20642;-75
2021/05/23 07:58:54;;;;;;;21.83;8.70;;;;;;;-145.50;100.00;65435.88;4966146;28;20478;-75
2021/05/23 08:01:41;;;;;;;15.23;8.75;;;;;;;-145.50;100.00;65435.88;4971286;28;20530;-75
2021/05/23 08:04:28;;;;;;;17.75;8.63;;;;;;;-145.50;100.00;65435.88;4971217;28;20358;-75
2021/05/23 08:06:55;;;;;;;21.95;8.90;;;;;;;-145.50;100.00;65435.88;4967862;28;20089;-75
2021/05/23 08:09:42;;;;;;;20.17;8.23;;;;;;;-145.50;100.00;65435.88;4979301;28;20054;-74
2021/05/23 08:12:30;;;;;;;17.20;8.57;;;;;;;-145.50;100.00;65435.88;4954118;28;20132;-73
2021/05/23 08:15:18;;;;;;;16.30;7.38;;;;;;;-145.50;100.00;65435.88;4964486;28;20585;-74
2021/05/23 08:18:06;;;;;;;22.60;8.70;;;;;;;-145.50;100.00;65435.88;4973370;28;20699;-74
2021/05/23 08:20:56;;;;;;;15.82;8.55;;;;;;;-145.50;100.00;65435.88;4969328;28;20124;-74
2021/05/23 08:23:24;;;;;;;16.48;8.18;;;;;;;-145.50;100.00;65435.88;4962390;28;20072;-74
2021/05/23 08:25:52;;;;;;;13.95;8.95;;;;;;;-145.50;100.00;65435.88;4971900;28;20086;-73
2021/05/23 08:28:18;;;;;;;18.13;8.63;;;;;;;-145.50;100.00;65435.88;4960785;28;20105;-71
2021/05/23 08:30:45;;;;;;;13.30;8.68;;;;;;;-145.50;100.00;65435.88;4965722;28;20110;-74
2021/05/23 08:33:12;;;;;;;16.27;9.23;;;;;;;-145.50;100.00;65435.88;4948954;28;20988;-76
2021/05/23 08:35:40;;;;;;;14.70;8.40;;;;;;;-145.50;100.00;65435.88;4962409;28;20141;-74
2021/05/23 08:38:07;;;;;;;18.40;8.40;;;;;;;-145.50;100.00;65435.88;4977204;28;20744;-73
2021/05/23 08:40:36;;;;;;;20.30;8.57;;;;;;;-145.50;100.00;65435.88;4953533;28;20054;-75
2021/05/23 08:43:03;;;;;;;;;;;;;;;-145.50;100.00;65435.88;4974981;28;20161;-73
2021/05/23 08:45:30;;;;;;;21.92;9.15;;;;;;;-145.50;100.00;65435.88;4968803;28;19969;-73
2021/05/23 08:47:56;;;;;;;19.05;8.88;;;;;;;-145.50;100.00;65435.88;4972114;28;20050;-74
2021/05/23 08:50:24;;;;;;;12.55;7.70;;;;;;;-145.50;100.00;65435.88;4972529;28;20471;-74
2021/05/23 08:52:59;;;;;;;13.98;8.52;;;;;;;-145.50;100.00;65435.88;4951095;28;20081;-74
2021/05/23 08:55:28;;;;;;;16.77;8.52;;;;;;;-145.50;100.00;65435.88;4973922;28;20646;-74
2021/05/23 08:57:55;;;;;;;14.07;7.43;;;;;;;-145.50;100.00;65435.88;4966257;28;20807;-74
2021/05/23 09:00:22;;;;;;;20.83;6.63;;;;;;;-145.50;100.00;65435.88;4973895;28;20378;-75
2021/05/23 09:02:55;;;;;;;20.92;6.38;;;;;;;-145.50;100.00;65435.88;4949972;28;20383;-74
2021/05/23 09:05:26;;;;;;;14.48;5.47;;;;;;;-145.50;100.00;65435.88;4959890;28;20137;-75
2021/05/23 09:07:53;;;;;;;12.38;4.75;;;;;;;-145.50;100.00;65435.88;4979012;28;20058;-74
2021/05/23 09:10:28;;;;;;;10.52;4.32;;;;;;;-145.50;100.00;65435.88;4973821;28;20073;-74
2021/05/23 09:12:55;;;;;;;16.48;4.38;;;;;;;-145.50;100.00;65435.88;4978121;28;20144;-75
2021/05/23 09:15:22;;;;;;;11.02;4.35;;;;;;;-145.50;100.00;65435.88;4969263;28;20050;-75
2021/05/23 09:18:08;;;;;;;10.90;3.47;;;;;;;-145.50;100.00;65435.88;4956369;28;20057;-75
2021/05/23 09:20:36;;;;;;;13.25;3.42;;;;;;;-145.50;100.00;65435.88;4952281;28;20058;-75
2021/05/23 09:23:10;;;;;;;9.23;3.58;;;;;;;-145.50;100.00;65435.88;4978165;28;20050;-72
2021/05/23 09:25:37;;;;;;;12.18;2.83;;;;;;;-145.50;100.00;65435.88;4982158;28;20057;-76
2021/05/23 09:28:05;;;;;;;11.38;2.80;;;;;;;-145.50;100.00;65435.88;4969773;28;20289;-74
2021/05/23 09:30:34;;;;;;;9.95;2.70;;;;;;;-145.50;100.00;65435.88;4956334;28;20375;-76
2021/05/23 09:33:02;;;;;;;5.68;2.00;;;;;;;-145.50;100.00;65435.88;4972076;28;20057;-77
2021/05/23 09:35:30;;;;;;;6.13;1.85;;;;;;;-145.50;100.00;65435.88;4980260;28;20846;-75
2021/05/23 09:37:59;;;;;;;;;;;;;;;-145.50;100.00;65435.88;4972254;28;20117;-74
2021/05/23 09:40:35;;;;;;;6.82;1.98;;;;;;;-145.50;100.00;65435.88;4963347;28;20282;-74
2021/05/23 09:43:04;;;;;;;6.35;2.00;;;;;;;-145.50;100.00;65435.88;4975745;28;20066;-75
2021/05/23 09:45:49;;;;;;;4.70;1.80;;;;;;;-145.50;100.00;65435.88;4970154;28;20478;-75
2021/05/23 09:48:20;;;;;;;8.63;1.40;;;;;;;-145.50;100.00;65435.88;4963960;28;20504;-75
2021/05/23 09:50:53;;;;;;;12.40;1.50;;;;;;;-145.50;100.00;65435.88;4956520;28;20082;-75
2021/05/23 09:53:32;;;;;;;6.63;1.70;;;;;;;-145.50;100.00;65435.88;4982754;28;20046;-74
2021/05/23 09:56:13;;;;;;;6.88;1.80;;;;;;;-145.50;100.00;65435.88;4966487;28;20201;-74
2021/05/23 09:58:50;;;;;;;6.30;2.00;;;;;;;-145.50;100.00;65435.88;4969094;28;20058;-74
2021/05/23 10:01:26;;;;;;;5.53;1.65;;;;;;;-145.50;100.00;65435.88;4952486;28;20141;-74
2021/05/23 10:03:55;;;;;;;9.38;1.90;;;;;;;-145.50;100.00;65435.88;4980057;28;20574;-75
2021/05/23 10:06:29;;;;;;;10.65;2.28;;;;;;;-145.50;100.00;65435.88;4959091;28;20050;-74
2021/05/23 10:08:56;;;;;;;3.22;1.77;;;;;;;-145.50;100.00;65435.88;4979588;28;20883;-74
2021/05/23 10:11:24;;;;;;;4.70;2.10;;;;;;;-145.50;100.00;65435.88;4975632;28;20753;-75
2021/05/23 10:13:51;;;;;;;5.25;1.90;;;;;;;-145.50;100.00;65435.88;4972164;28;20057;-74
2021/05/23 10:16:21;;;;;;;6.13;2.45;;;;;;;-145.50;100.00;65435.88;4980871;28;20087;-74
2021/05/23 10:18:49;;;;;;;6.97;2.40;;;;;;;-145.50;100.00;65435.88;4959334;28;20177;-74
2021/05/23 10:21:16;;;;;;;5.97;2.23;;;;;;;-145.50;100.00;65435.88;4981404;28;20470;-73
2021/05/23 10:23:53;;;;;;;7.97;2.20;;;;;;;-145.50;100.00;65435.88;4981834;28;20900;-74
2021/05/23 10:26:25;;;;;;;6.28;2.42;;;;;;;-145.50;100.00;65435.88;4971327;28;20140;-74
2021/05/23 10:28:53;;;;;;;11.82;2.83;;;;;;;-145.50;100.00;65435.88;4976321;28;20494;-74
2021/05/23 10:31:31;;;;;;;6.68;2.60;;;;;;;-145.50;100.00;65435.88;4972272;28;20089;-75
2021/05/23 10:33:57;;;;;;;15.20;3.63;;;;;;;-145.50;100.00;65435.88;4977983;28;20105;-74
2021/05/23 10:36:34;;;;;;;11.73;3.88;;;;;;;-145.50;100.00;65435.88;4952855;28;20081;-75
2021/05/23 10:39:05;;;;;;;11.18;3.00;;;;;;;-145.50;100.00;65435.88;4973576;28;20480;-74
2021/05/23 10:41:33;;;;;;;10.98;3.38;;;;;;;-145.50;100.00;65435.88;4966906;28;21003;-74
2021/05/23 10:44:19;;;;;;;6.10;3.30;;;;;;;-145.50;100.00;65435.88;4976346;28;20116;-74
2021/05/23 10:46:50;;;;;;;8.90;2.83;;;;;;;-145.50;100.00;65435.88;4978593;28;20133;-74
2021/05/23 10:49:17;;;;;;;9.40;2.97;;;;;;;-145.50;100.00;65435.88;4973791;28;20073;-74
2021/05/23 10:51:54;;;;;;;7.97;2.50;;;;;;;-145.50;100.00;65435.88;4982982;28;20080;-74
2021/05/23 10:54:21;;;;;;;7.75;2.92;;;;;;;-145.50;100.00;65435.88;4960928;28;20640;-74
2021/05/23 10:56:59;;;;;;;5.80;2.30;;;;;;;-145.50;100.00;65435.88;4961662;28;20133;-74
2021/05/23 10:59:29;;;;;;;7.30;3.00;;;;;;;-145.50;100.00;65435.88;4969807;28;20065;-74
2021/05/23 11:01:55;;;;;;;6.50;2.92;;;;;;;-145.50;100.00;65435.88;4962481;28;20175;-74
2021/05/23 11:04:24;;;;;;;8.77;2.55;;;;;;;-145.50;100.00;65435.88;4971565;28;20086;-75
2021/05/23 11:06:50;;;;;;;9.63;2.67;;;;;;;-145.50;100.00;65435.88;4972750;28;20050;-74
2021/05/23 11:09:24;;;;;;;5.68;2.50;;;;;;;-145.50;100.00;65435.88;4972117;28;20053;-74
2021/05/23 11:11:50;;;;;;;7.40;2.70;;;;;;;-145.50;100.00;65435.88;4953458;28;20056;-74
2021/05/23 11:14:23;;;;;;;8.45;2.70;;;;;;;-145.50;100.00;65435.88;4960168;28;20054;-74
2021/05/23 11:16:55;;;;;;;6.88;2.60;;;;;;;-145.50;100.00;65435.88;4954186;28;20469;-74
2021/05/23 11:19:23;;;;;;;5.95;2.70;;;;;;;-145.50;100.00;65435.88;4976888;28;20086;-75
2021/05/23 11:21:53;;;;;;;10.10;2.72;;;;;;;-145.50;100.00;65435.88;4945232;28;20086;-74
2021/05/23 11:24:28;;;;;;;6.97;2.75;;;;;;;-145.50;100.00;65435.88;4973601;28;20505;-74
2021/05/23 11:27:08;;;;;;;8.47;2.30;;;;;;;-145.50;100.00;65435.88;4977187;28;20061;-74
2021/05/23 11:29:35;;;;;;;10.70;2.72;;;;;;;-145.50;100.00;65435.88;4949136;28;20058;-74
2021/05/23 11:32:02;;;;;;;6.18;2.10;;;;;;;-145.50;100.00;65435.88;4975200;28;20508;-73
2021/05/23 11:34:28;;;;;;;8.50;2.40;;;;;;;-145.50;100.00;65435.88;4965040;28;20136;-73
2021/05/23 11:36:55;;;;;;;6.20;2.25;;;;;;;-145.50;100.00;65435.88;4969787;28;20485;-73
2021/05/23 11:39:25;;;;;;;12.00;2.72;;;;;;;-145.50;100.00;65435.88;4975880;28;20065;-73
2021/05/23 11:41:51;;;;;;;5.85;2.53;;;;;;;-145.50;100.00;65435.88;4975139;28;20077;-75
2021/05/23 11:44:18;;;;;;;12.05;3.00;;;;;;;-145.50;100.00;65435.88;4962689;28;20209;-75
2021/05/23 11:46:50;;;;;;;10.55;2.92;;;;;;;-145.50;100.00;65435.88;4971251;28;20081;-73
2021/05/23 11:49:18;;;;;;;7.53;2.83;;;;;;;-145.50;100.00;65435.88;4973325;28;20156;-75
2021/05/23 11:51:45;;;;;;;7.65;2.83;;;;;;;-145.50;100.00;65435.88;4962533;28;20140;-75
2021/05/23 11:54:13;;;;;;;10.85;3.20;;;;;;;-145.50;100.00;65435.88;4960764;28;20210;-75
2021/05/23 11:56:40;;;;;;;6.05;2.80;;;;;;;-145.50;100.00;65435.88;4968787;28;20166;-74
2021/05/23 11:59:08;;;;;;;6.00;2.40;;;;;;;-145.50;100.00;65435.88;4977995;28;20077;-75
2021/05/23 12:01:40;;;;;;;8.35;2.03;;;;;;;-145.50;100.00;65435.88;4973970;28;20131;-74
2021/05/23 12:04:12;;;;;;;3.80;1.40;;;;;;;-145.50;100.00;65435.88;4963522;28;20330;-75
2021/05/23 12:06:50;;;;;;;6.47;1.50;;;;;;;-145.50;100.00;65435.88;4958203;28;20058;-74
2021/05/23 12:09:31;;;;;;;6.85;1.98;;;;;;;-145.50;100.00;65435.88;4970832;28;20641;-75